Time;durP1;ratioP1;P1;durP2;ratioP2;P2;SDS_P1;SDS_P2;PMS_P1;PMS_P2;Temp;Humidity;BMP_temperature;BMP_pressure;BME280_temperature;BME280_humidity;BME280_pressure;Samples;Min_cycle;Max_cycle;Signal;HPM_P1;HPM_P2
2023/02/09 00:02:17;;;;;;;76.40;24.47;;;-2.50;99.90;;;;;;5072257;28;20287;-62
2023/02/09 00:05:22;;;;;;;65.50;22.00;;;-2.60;99.90;;;;;;5071421;28;20218;-62
2023/02/09 00:08:30;;;;;;;53.67;20.90;;;-2.60;99.90;;;;;;5069174;28;20322;-61
2023/02/09 00:15:01;;;;;;;45.87;17.50;;;-2.60;99.90;;;;;;5070679;28;20272;-62
2023/02/09 00:18:07;;;;;;;36.50;16.00;;;-2.60;99.90;;;;;;5068246;28;20243;-62
2023/02/09 00:21:13;;;;;;;27.17;14.30;;;-2.70;99.90;;;;;;5066557;28;20307;-62
2023/02/09 00:24:19;;;;;;;30.00;14.47;;;-2.70;99.90;;;;;;5066606;28;20285;-61
2023/02/09 00:27:25;;;;;;;25.97;13.63;;;-2.60;99.90;;;;;;5067302;28;20223;-62
2023/02/09 00:30:32;;;;;;;29.87;13.53;;;-2.60;99.90;;;;;;5061662;28;20261;-62
2023/02/09 00:33:38;;;;;;;24.37;12.53;;;-2.50;99.90;;;;;;5055200;28;20218;-62
2023/02/09 00:36:44;;;;;;;26.70;13.30;;;-2.30;99.90;;;;;;5067596;28;20226;-62
2023/02/09 00:39:50;;;;;;;23.30;12.30;;;-2.10;99.90;;;;;;5068791;28;20246;-62
2023/02/09 00:42:56;;;;;;;26.23;13.10;;;-2.10;99.90;;;;;;5067387;28;20816;-62
2023/02/09 00:46:03;;;;;;;25.40;12.50;;;-2.10;99.90;;;;;;5061001;28;20230;-63
2023/02/09 00:49:09;;;;;;;24.03;12.30;;;-2.20;99.90;;;;;;5062856;28;20237;-64
2023/02/09 00:52:15;;;;;;;23.10;13.20;;;-2.10;99.90;;;;;;5058387;28;20230;-64
2023/02/09 00:55:22;;;;;;;22.33;12.67;;;-2.00;99.90;;;;;;5065826;28;20661;-64
2023/02/09 00:58:28;;;;;;;20.23;11.90;;;-2.00;99.90;;;;;;5075476;28;20206;-64
2023/02/09 01:01:35;;;;;;;22.80;12.50;;;-2.10;99.90;;;;;;5066501;28;20269;-64
2023/02/09 01:04:42;;;;;;;25.60;11.90;;;-2.20;99.90;;;;;;5067626;28;20254;-64
2023/02/09 01:07:48;;;;;;;20.30;10.73;;;-2.20;99.90;;;;;;5067150;28;20727;-63
2023/02/09 01:10:54;;;;;;;19.20;10.77;;;-2.00;99.90;;;;;;5069015;28;20773;-63
2023/02/09 01:14:03;;;;;;;20.60;10.57;;;-1.80;99.90;;;;;;5074285;28;20195;-63
2023/02/09 01:17:11;;;;;;;18.47;10.33;;;-1.50;99.90;;;;;;5067138;28;20226;-62
2023/02/09 01:20:17;;;;;;;20.47;10.10;;;-1.40;99.90;;;;;;5070075;28;20222;-64
2023/02/09 01:23:23;;;;;;;19.43;9.57;;;-1.30;99.90;;;;;;5069585;28;20268;-64
2023/02/09 01:26:28;;;;;;;19.27;9.57;;;-1.20;99.90;;;;;;5072653;28;20207;-64
2023/02/09 01:29:34;;;;;;;18.13;9.67;;;-1.20;99.90;;;;;;5071296;28;20190;-64
2023/02/09 01:32:43;;;;;;;21.07;9.60;;;-1.10;99.90;;;;;;5071578;28;20268;-64
2023/02/09 01:35:49;;;;;;;23.10;9.63;;;-1.00;99.90;;;;;;5070508;28;20211;-64
2023/02/09 01:38:55;;;;;;;19.13;9.23;;;-1.00;99.90;;;;;;5058381;28;20250;-64
2023/02/09 01:42:02;;;;;;;18.37;8.97;;;-0.90;99.90;;;;;;5071802;28;20242;-62
2023/02/09 01:45:20;;;;;;;18.87;8.00;;;-0.60;99.90;;;;;;5060221;28;20585;-61
2023/02/09 01:48:30;;;;;;;12.97;7.53;;;-0.40;99.90;;;;;;5073327;28;20294;-64
2023/02/09 01:51:40;;;;;;;14.43;7.37;;;-0.10;99.90;;;;;;5066699;28;20738;-62
2023/02/09 01:54:50;;;;;;;9.63;6.87;;;0.10;99.90;;;;;;5071103;28;20728;-62
2023/02/09 01:57:59;;;;;;;12.50;7.37;;;0.30;99.90;;;;;;5069565;28;20241;-64
2023/02/09 02:01:05;;;;;;;14.47;7.77;;;0.40;99.90;;;;;;5063151;28;20235;-64
2023/02/09 02:04:12;;;;;;;13.50;7.57;;;0.50;99.90;;;;;;5070235;28;20230;-65
2023/02/09 02:07:25;;;;;;;13.63;7.33;;;0.50;99.90;;;;;;5065054;28;20246;-62
2023/02/09 02:10:31;;;;;;;12.50;7.67;;;0.50;99.90;;;;;;5069308;28;20199;-62
2023/02/09 02:13:37;;;;;;;12.27;7.63;;;0.40;99.90;;;;;;5068474;28;20199;-62
2023/02/09 02:16:49;;;;;;;12.07;7.30;;;0.30;99.90;;;;;;5070825;28;20815;-64
2023/02/09 02:20:21;;;;;;;16.77;7.40;;;0.30;99.90;;;;;;5068857;28;20697;-62
2023/02/09 02:23:35;;;;;;;17.20;7.60;;;0.20;99.90;;;;;;5064311;28;20254;-62
2023/02/09 02:26:51;;;;;;;10.50;7.03;;;0.20;99.90;;;;;;5071353;28;20276;-64
2023/02/09 02:30:27;;;;;;;12.30;7.70;;;0.20;99.90;;;;;;5075637;28;20574;-64
2023/02/09 02:33:44;;;;;;;13.73;7.80;;;0.20;99.90;;;;;;5066980;28;20278;-64
2023/02/09 02:37:00;;;;;;;12.43;7.60;;;0.10;99.90;;;;;;5072378;28;20215;-64
2023/02/09 02:40:15;;;;;;;12.43;7.73;;;0.00;99.90;;;;;;5068938;28;20207;-64
2023/02/09 02:43:36;;;;;;;11.87;7.83;;;-0.10;99.90;;;;;;5073538;28;20203;-64
2023/02/09 02:46:46;;;;;;;15.33;8.23;;;-0.20;99.90;;;;;;5065966;28;20255;-64
2023/02/09 02:49:57;;;;;;;14.10;7.93;;;-0.30;99.90;;;;;;5059809;28;20661;-64
2023/02/09 02:53:06;;;;;;;12.73;7.73;;;-0.30;99.90;;;;;;5072092;28;20246;-64
2023/02/09 02:56:18;;;;;;;15.97;8.27;;;-0.30;99.90;;;;;;5070560;28;20207;-64
2023/02/09 02:59:28;;;;;;;17.87;7.77;;;-0.30;99.90;;;;;;5075395;28;20195;-64
2023/02/09 03:02:38;;;;;;;14.00;8.00;;;-0.30;99.90;;;;;;5066211;28;20223;-64
2023/02/09 03:05:46;;;;;;;14.77;8.03;;;-0.20;99.90;;;;;;5064731;28;20234;-64
2023/02/09 03:08:54;;;;;;;18.73;8.83;;;-0.20;99.90;;;;;;5072424;28;20590;-64
2023/02/09 03:12:08;;;;;;;14.97;7.40;;;-0.30;99.90;;;;;;5054369;28;20703;-64
2023/02/09 03:15:23;;;;;;;14.33;7.90;;;-0.40;99.90;;;;;;5065546;28;20236;-64
2023/02/09 03:18:35;;;;;;;14.83;8.37;;;-0.40;99.90;;;;;;5068548;28;20281;-64
2023/02/09 03:21:52;;;;;;;12.63;7.70;;;-0.50;99.90;;;;;;5063691;28;20253;-64
2023/02/09 03:25:02;;;;;;;12.83;7.40;;;-0.50;99.90;;;;;;5068007;28;20246;-64
2023/02/09 03:28:11;;;;;;;10.47;7.60;;;-0.50;99.90;;;;;;5066349;28;20200;-64
2023/02/09 03:31:19;;;;;;;13.10;8.00;;;-0.50;99.90;;;;;;5063768;28;20265;-64
2023/02/09 03:34:25;;;;;;;11.90;7.40;;;-0.60;99.90;;;;;;5069394;28;20202;-64
2023/02/09 03:37:32;;;;;;;12.90;7.90;;;-0.60;99.90;;;;;;5062129;28;21078;-64
2023/02/09 03:40:38;;;;;;;13.47;7.87;;;-0.60;99.90;;;;;;5065468;28;20223;-64
2023/02/09 03:47:09;;;;;;;16.53;8.37;;;-0.70;99.90;;;;;;5067803;28;20274;-64
2023/02/09 03:50:15;;;;;;;13.07;7.87;;;-0.70;99.90;;;;;;5073687;28;20254;-64
2023/02/09 03:53:23;;;;;;;12.63;8.13;;;-0.70;99.90;;;;;;5069355;28;20255;-64
2023/02/09 03:56:28;;;;;;;14.03;8.30;;;-0.70;99.90;;;;;;5060279;28;20231;-64
2023/02/09 03:59:36;;;;;;;15.70;8.80;;;-0.70;99.90;;;;;;5070470;28;20244;-63
2023/02/09 04:02:42;;;;;;;14.07;7.53;;;-0.60;99.90;;;;;;5068450;28;20234;-64
2023/02/09 04:05:48;;;;;;;16.80;7.73;;;-0.60;99.90;;;;;;5069150;28;20199;-64
2023/02/09 04:08:56;;;;;;;12.57;7.43;;;-0.50;99.90;;;;;;5065268;28;20696;-64
2023/02/09 04:12:02;;;;;;;17.77;8.33;;;-0.50;99.90;;;;;;5066893;28;20209;-64
2023/02/09 04:15:09;;;;;;;18.80;8.50;;;-0.40;99.90;;;;;;5067277;28;20306;-63
2023/02/09 04:18:15;;;;;;;15.20;8.27;;;-0.40;99.90;;;;;;5066211;28;20323;-64
2023/02/09 04:21:21;;;;;;;16.40;8.30;;;-0.40;99.90;;;;;;5066029;28;20215;-63
2023/02/09 04:24:28;;;;;;;15.67;8.47;;;-0.40;99.90;;;;;;5069126;28;20230;-63
2023/02/09 04:27:35;;;;;;;15.17;8.23;;;-0.50;99.90;;;;;;5074114;28;20202;-63
2023/02/09 04:30:42;;;;;;;16.13;8.47;;;-0.50;99.90;;;;;;5064161;28;20228;-64
2023/02/09 04:33:49;;;;;;;14.80;8.23;;;-0.50;99.90;;;;;;5074767;28;20258;-64
2023/02/09 04:36:54;;;;;;;13.57;8.13;;;-0.60;99.90;;;;;;5067450;28;20238;-63
2023/02/09 04:40:01;;;;;;;16.03;8.77;;;-0.60;99.90;;;;;;5064920;28;20224;-64
2023/02/09 04:43:07;;;;;;;16.20;8.43;;;-0.60;99.90;;;;;;5068648;28;20226;-64
2023/02/09 04:46:14;;;;;;;13.73;8.53;;;-0.60;99.90;;;;;;5061928;28;20203;-64
2023/02/09 04:49:20;;;;;;;19.97;9.03;;;-0.70;99.90;;;;;;5066703;28;20307;-63
2023/02/09 04:52:26;;;;;;;14.77;8.53;;;-0.80;99.90;;;;;;5061105;28;20223;-64
2023/02/09 04:55:36;;;;;;;19.17;8.80;;;-0.90;99.90;;;;;;5067591;28;20202;-63
2023/02/09 05:02:05;;;;;;;12.70;8.07;;;-0.90;99.90;;;;;;5065943;28;20258;-64
2023/02/09 05:05:11;;;;;;;15.77;8.70;;;-1.00;99.90;;;;;;5067309;28;20199;-64
2023/02/09 05:08:17;;;;;;;16.23;8.23;;;-1.00;99.90;;;;;;5065892;28;20752;-63
2023/02/09 05:11:24;;;;;;;17.67;9.57;;;-1.00;99.90;;;;;;5062715;28;20720;-64
2023/02/09 05:14:30;;;;;;;14.37;8.27;;;-0.90;99.90;;;;;;5062950;28;20226;-64
2023/02/09 05:17:36;;;;;;;15.93;8.53;;;-0.90;99.90;;;;;;5064544;28;20226;-63
2023/02/09 05:20:44;;;;;;;15.10;9.00;;;-0.90;99.90;;;;;;5062839;28;20570;-64
2023/02/09 05:23:50;;;;;;;17.87;9.50;;;-0.90;99.90;;;;;;5057443;28;20212;-63
2023/02/09 05:26:58;;;;;;;15.87;8.70;;;-1.00;99.90;;;;;;5067410;28;20195;-63
2023/02/09 05:30:04;;;;;;;15.80;8.60;;;-1.00;99.90;;;;;;5060111;28;20207;-63
2023/02/09 05:33:11;;;;;;;23.40;9.20;;;-1.00;99.90;;;;;;5057232;28;20219;-64
2023/02/09 05:36:17;;;;;;;16.80;9.07;;;-1.10;99.90;;;;;;5067055;28;20723;-64
2023/02/09 05:39:23;;;;;;;16.60;8.80;;;-1.00;99.90;;;;;;5070280;28;20231;-63
2023/02/09 05:42:30;;;;;;;20.73;8.63;;;-1.00;99.90;;;;;;5065178;28;20219;-63
2023/02/09 05:45:36;;;;;;;15.97;9.00;;;-1.00;99.90;;;;;;5059694;28;20272;-63
2023/02/09 05:48:43;;;;;;;16.60;9.00;;;-1.10;99.90;;;;;;5072298;28;20227;-64
2023/02/09 05:51:48;;;;;;;17.00;8.90;;;-1.00;99.90;;;;;;5060927;28;20221;-63
2023/02/09 05:54:54;;;;;;;18.33;8.40;;;-1.00;99.90;;;;;;5067315;28;20223;-64
2023/02/09 05:58:01;;;;;;;17.23;9.10;;;-1.10;99.90;;;;;;5071288;28;20230;-63
2023/02/09 06:01:07;;;;;;;15.67;9.30;;;-1.10;99.90;;;;;;5075004;28;20199;-64
2023/02/09 06:04:13;;;;;;;20.93;9.33;;;-1.20;99.90;;;;;;5070755;28;20310;-64
2023/02/09 06:07:19;;;;;;;21.33;8.47;;;-1.10;99.90;;;;;;5073167;28;20254;-63
2023/02/09 06:10:25;;;;;;;22.47;10.93;;;-1.10;99.90;;;;;;5076570;28;20712;-63
2023/02/09 06:13:32;;;;;;;15.83;9.20;;;-1.10;99.90;;;;;;5060300;28;20809;-63
2023/02/09 06:16:39;;;;;;;20.60;9.57;;;-1.20;99.90;;;;;;5062516;28;20219;-63
2023/02/09 06:19:45;;;;;;;19.27;9.53;;;-1.20;99.90;;;;;;5072262;28;20589;-64
2023/02/09 06:22:51;;;;;;;13.87;8.40;;;-1.20;99.90;;;;;;5069061;28;20358;-63
2023/02/09 06:25:57;;;;;;;19.13;9.03;;;-1.20;99.90;;;;;;5070434;28;20206;-64
2023/02/09 06:29:04;;;;;;;16.47;9.20;;;-1.30;99.90;;;;;;5069384;28;20211;-64
2023/02/09 06:32:10;;;;;;;17.20;8.97;;;-1.40;99.90;;;;;;5074496;28;20561;-63
2023/02/09 06:35:17;;;;;;;19.70;8.83;;;-1.50;99.90;;;;;;5066322;28;20700;-63
2023/02/09 06:38:24;;;;;;;17.17;9.37;;;-1.60;99.90;;;;;;5074186;28;20272;-64
2023/02/09 06:41:30;;;;;;;20.50;9.70;;;-1.60;99.90;;;;;;5073848;28;20229;-64
2023/02/09 06:44:37;;;;;;;17.33;9.67;;;-1.60;99.90;;;;;;5068735;28;20207;-64
2023/02/09 06:47:46;;;;;;;20.07;10.00;;;-1.60;99.90;;;;;;5062201;28;20219;-64
2023/02/09 06:50:51;;;;;;;20.87;10.80;;;-1.60;99.90;;;;;;5069398;28;20224;-64
2023/02/09 06:53:58;;;;;;;22.17;12.10;;;-1.60;99.90;;;;;;5070214;28;20223;-64
2023/02/09 06:57:04;;;;;;;26.40;12.17;;;-1.60;99.90;;;;;;5065930;28;20211;-63
2023/02/09 07:00:12;;;;;;;24.30;12.00;;;-1.60;99.90;;;;;;5070271;28;20249;-63
2023/02/09 07:03:19;;;;;;;18.57;10.53;;;-1.60;99.90;;;;;;5069686;28;20260;-64
2023/02/09 07:06:24;;;;;;;24.07;9.73;;;-1.50;99.90;;;;;;5069229;28;20238;-64
2023/02/09 07:09:31;;;;;;;18.70;9.87;;;-1.50;99.90;;;;;;5070036;28;20227;-64
2023/02/09 07:12:37;;;;;;;16.97;9.23;;;-1.50;99.90;;;;;;5068861;28;20280;-64
2023/02/09 07:15:54;;;;;;;22.03;9.77;;;-1.60;99.90;;;;;;5070501;28;20207;-64
2023/02/09 07:19:00;;;;;;;21.43;9.53;;;-1.60;99.90;;;;;;5065118;28;20234;-63
2023/02/09 07:22:06;;;;;;;17.47;9.13;;;-1.60;99.90;;;;;;5075249;28;20224;-63
2023/02/09 07:25:12;;;;;;;21.60;10.20;;;-1.60;99.90;;;;;;5053031;28;20812;-63
2023/02/09 07:28:20;;;;;;;20.20;9.93;;;-1.50;99.90;;;;;;5072973;28;20676;-64
2023/02/09 07:31:28;;;;;;;21.53;10.53;;;-1.40;99.90;;;;;;5055580;28;20242;-63
2023/02/09 07:34:34;;;;;;;18.10;9.93;;;-1.40;99.90;;;;;;5055182;28;20416;-64
2023/02/09 07:37:40;;;;;;;19.63;10.13;;;-1.30;99.90;;;;;;5068595;28;20245;-64
2023/02/09 07:40:46;;;;;;;17.57;10.40;;;-1.20;99.90;;;;;;5060346;28;20569;-64
2023/02/09 07:43:53;;;;;;;21.63;10.17;;;-1.20;99.90;;;;;;5059714;28;20226;-64
2023/02/09 07:47:00;;;;;;;16.37;9.10;;;-1.20;99.90;;;;;;5068344;28;20242;-64
2023/02/09 07:50:07;;;;;;;19.67;10.83;;;-1.00;99.90;;;;;;5069098;28;20227;-64
2023/02/09 07:53:12;;;;;;;21.70;10.23;;;-0.90;99.90;;;;;;5069726;28;20223;-64
2023/02/09 07:56:18;;;;;;;19.20;9.37;;;-0.70;99.90;;;;;;5068543;28;20256;-64
2023/02/09 07:59:24;;;;;;;18.73;10.57;;;-0.60;99.90;;;;;;5066801;28;20248;-64
2023/02/09 08:02:35;;;;;;;19.90;9.50;;;-0.50;99.90;;;;;;5061850;28;20265;-64
2023/02/09 08:05:45;;;;;;;30.93;11.47;;;-0.40;99.90;;;;;;5066850;28;20753;-64
2023/02/09 08:08:52;;;;;;;16.63;9.50;;;-0.30;99.90;;;;;;5065983;28;20744;-64
2023/02/09 08:12:01;;;;;;;18.50;9.57;;;-0.20;99.90;;;;;;5068668;28;20195;-64
2023/02/09 08:15:08;;;;;;;18.73;10.07;;;-0.10;99.90;;;;;;5071178;28;20191;-64
2023/02/09 08:18:18;;;;;;;21.93;9.67;;;0.10;99.90;;;;;;5070814;28;20241;-64
2023/02/09 08:21:25;;;;;;;16.90;9.57;;;0.20;99.90;;;;;;5060138;28;20223;-64
2023/02/09 08:24:32;;;;;;;17.70;9.67;;;0.30;99.90;;;;;;5065845;28;20231;-64
2023/02/09 08:27:39;;;;;;;17.70;10.20;;;0.40;99.90;;;;;;5070824;28;20199;-64
2023/02/09 08:30:46;;;;;;;23.27;10.03;;;0.50;99.90;;;;;;5070671;28;20203;-64
2023/02/09 08:33:54;;;;;;;18.87;10.43;;;0.60;99.90;;;;;;5061744;28;20624;-64
2023/02/09 08:37:00;;;;;;;16.67;9.87;;;0.80;99.90;;;;;;5068106;28;20227;-65
2023/02/09 08:40:06;;;;;;;19.90;11.07;;;0.90;99.90;;;;;;5069024;28;20648;-64
2023/02/09 08:43:13;;;;;;;18.03;9.87;;;1.00;99.90;;;;;;5066743;28;20219;-64
2023/02/09 08:46:19;;;;;;;18.93;10.40;;;1.10;99.90;;;;;;5072093;28;20217;-64
2023/02/09 08:49:26;;;;;;;18.10;10.67;;;1.20;99.90;;;;;;5070220;28;20685;-64
2023/02/09 08:52:32;;;;;;;20.87;10.37;;;1.30;99.90;;;;;;5069263;28;20344;-65
2023/02/09 08:55:38;;;;;;;15.50;9.30;;;1.40;99.90;;;;;;5067348;28;20215;-65
2023/02/09 08:58:44;;;;;;;23.07;9.77;;;1.60;99.90;;;;;;5070601;28;20236;-65
2023/02/09 09:01:50;;;;;;;22.60;10.77;;;1.70;99.90;;;;;;5071989;28;20202;-65
2023/02/09 09:04:57;;;;;;;21.33;10.57;;;1.60;99.90;;;;;;5068206;28;20227;-65
2023/02/09 09:08:03;;;;;;;19.37;9.90;;;1.70;99.90;;;;;;5066170;28;20224;-65
2023/02/09 09:11:13;;;;;;;19.73;10.67;;;2.00;99.90;;;;;;5073510;28;20247;-65
2023/02/09 09:14:19;;;;;;;19.83;10.50;;;2.10;99.90;;;;;;5071495;28;20248;-65
2023/02/09 09:17:25;;;;;;;20.20;10.63;;;2.30;99.90;;;;;;5073071;28;20223;-65
2023/02/09 09:20:33;;;;;;;20.87;10.77;;;2.40;99.90;;;;;;5071909;28;20230;-65
2023/02/09 09:23:39;;;;;;;17.37;10.30;;;2.40;99.90;;;;;;5073043;28;20226;-65
2023/02/09 09:26:45;;;;;;;17.20;10.40;;;2.50;99.90;;;;;;5071019;28;20640;-65
2023/02/09 09:29:51;;;;;;;19.83;10.53;;;2.70;99.90;;;;;;5073149;28;20225;-65
2023/02/09 09:32:57;;;;;;;18.17;10.07;;;2.80;99.90;;;;;;5074197;28;20244;-66
2023/02/09 09:36:06;;;;;;;20.07;11.13;;;2.90;99.90;;;;;;5069582;28;20219;-66
2023/02/09 09:39:13;;;;;;;17.50;10.30;;;2.90;99.90;;;;;;5070287;28;20227;-65
2023/02/09 09:42:24;;;;;;;16.97;10.17;;;3.00;99.90;;;;;;5073735;28;20207;-66
2023/02/09 09:45:33;;;;;;;18.97;10.77;;;3.10;99.90;;;;;;5074908;28;20206;-65
2023/02/09 09:48:44;;;;;;;17.50;10.10;;;3.30;99.90;;;;;;5075225;28;20207;-66
2023/02/09 09:51:57;;;;;;;17.90;11.20;;;3.50;99.90;;;;;;5066268;28;20234;-65
2023/02/09 09:55:07;;;;;;;16.23;10.40;;;3.50;99.90;;;;;;5059571;28;20254;-65
2023/02/09 09:58:18;;;;;;;21.17;11.07;;;3.50;99.90;;;;;;5071402;28;20207;-65
2023/02/09 10:01:27;;;;;;;19.73;11.63;;;3.60;99.90;;;;;;5069038;28;20199;-66
2023/02/09 10:04:33;;;;;;;20.23;11.07;;;3.50;99.90;;;;;;5070129;28;20628;-65
2023/02/09 10:07:43;;;;;;;21.23;10.80;;;3.50;99.90;;;;;;5068184;28;20215;-66
2023/02/09 10:10:56;;;;;;;20.63;11.83;;;3.40;99.90;;;;;;5029169;28;20246;-66
2023/02/09 10:14:02;;;;;;;24.43;10.97;;;3.50;99.90;;;;;;5028627;28;20217;-65
2023/02/09 10:17:08;;;;;;;21.30;11.13;;;3.60;99.90;;;;;;5032991;28;20192;-66
2023/02/09 10:20:14;;;;;;;23.17;10.87;;;3.80;99.90;;;;;;5030007;28;20259;-66
2023/02/09 10:23:25;;;;;;;21.07;11.53;;;4.10;99.90;;;;;;5031904;28;20268;-66
2023/02/09 10:26:32;;;;;;;23.03;11.70;;;4.30;99.90;;;;;;5029560;28;20224;-65
2023/02/09 10:29:38;;;;;;;18.73;11.13;;;4.70;99.90;;;;;;5028668;28;20189;-66
2023/02/09 10:32:45;;;;;;;18.90;11.50;;;5.10;99.90;;;;;;5029159;28;20208;-67
2023/02/09 10:35:54;;;;;;;19.20;11.47;;;5.50;99.90;;;;;;5029000;28;21195;-66
2023/02/09 10:39:13;;;;;;;24.73;12.47;;;5.70;99.90;;;;;;5029056;28;20220;-64
2023/02/09 10:42:24;;;;;;;21.73;12.10;;;6.10;99.90;;;;;;5031767;28;20583;-63
2023/02/09 10:45:37;;;;;;;20.73;12.87;;;6.40;99.90;;;;;;5033850;28;20698;-64
2023/02/09 10:48:45;;;;;;;24.77;13.13;;;6.50;99.90;;;;;;5033416;28;20239;-64
2023/02/09 10:51:51;;;;;;;19.77;12.93;;;6.60;99.90;;;;;;5032648;28;20232;-63
2023/02/09 10:55:03;;;;;;;24.80;13.37;;;6.80;99.90;;;;;;5032261;28;20236;-64
2023/02/09 10:58:21;;;;;;;26.37;13.87;;;6.60;99.90;;;;;;5029620;28;20224;-64
2023/02/09 11:01:31;;;;;;;22.17;12.73;;;6.90;99.90;;;;;;5034907;28;20596;-64
2023/02/09 11:04:39;;;;;;;21.63;14.00;;;6.70;99.90;;;;;;5032080;28;20552;-64
2023/02/09 11:07:48;;;;;;;26.33;13.07;;;6.50;99.90;;;;;;5030103;28;20625;-64
2023/02/09 11:11:01;;;;;;;25.00;13.73;;;6.30;99.90;;;;;;5026007;28;20229;-64
2023/02/09 11:14:11;;;;;;;27.10;14.10;;;6.30;99.90;;;;;;5032335;28;20255;-66
2023/02/09 11:17:23;;;;;;;26.03;14.67;;;6.50;99.90;;;;;;5033160;28;20192;-64
2023/02/09 11:20:34;;;;;;;27.70;13.97;;;6.60;99.90;;;;;;5030325;28;20581;-64
2023/02/09 11:23:46;;;;;;;25.97;13.87;;;6.50;99.90;;;;;;5028493;28;20954;-64
2023/02/09 11:26:59;;;;;;;24.43;14.23;;;6.40;99.90;;;;;;5027927;28;20212;-64
2023/02/09 11:30:22;;;;;;;22.33;14.03;;;6.50;99.90;;;;;;5030649;28;20683;-64
2023/02/09 11:33:39;;;;;;;22.93;14.20;;;6.60;99.90;;;;;;5029431;28;20781;-66
2023/02/09 11:36:55;;;;;;;29.10;15.27;;;6.80;99.90;;;;;;5029535;28;20236;-66
2023/02/09 11:40:19;;;;;;;27.23;13.87;;;6.90;99.90;;;;;;5028136;28;20228;-66
2023/02/09 11:43:32;;;;;;;20.93;13.63;;;6.90;99.90;;;;;;5029878;28;20802;-66
2023/02/09 11:46:39;;;;;;;23.67;14.23;;;6.90;99.90;;;;;;5030355;28;20240;-66
2023/02/09 11:49:48;;;;;;;23.90;14.20;;;6.90;99.90;;;;;;5032550;28;20615;-66
2023/02/09 11:52:57;;;;;;;23.80;14.40;;;6.90;99.90;;;;;;5029511;28;20649;-66
2023/02/09 11:56:05;;;;;;;23.30;14.83;;;6.90;99.90;;;;;;5024804;28;20334;-66
2023/02/09 11:59:21;;;;;;;25.80;14.93;;;7.00;99.90;;;;;;5027670;28;20702;-66
2023/02/09 12:02:40;;;;;;;22.47;13.93;;;7.00;99.90;;;;;;5028607;28;20216;-66
2023/02/09 12:05:47;;;;;;;27.97;15.83;;;6.90;99.90;;;;;;5028018;28;20227;-66
2023/02/09 12:09:07;;;;;;;22.33;14.37;;;6.80;99.90;;;;;;5045560;28;20327;-66
2023/02/09 12:12:23;;;;;;;26.03;15.53;;;6.70;99.90;;;;;;5066911;28;20269;-66
2023/02/09 12:15:38;;;;;;;27.60;14.87;;;6.60;99.90;;;;;;5065411;28;20199;-66
2023/02/09 12:18:44;;;;;;;30.23;15.73;;;6.60;99.90;;;;;;5067798;28;20211;-66
2023/02/09 12:21:50;;;;;;;27.37;15.37;;;6.70;99.90;;;;;;5067722;28;20250;-66
2023/02/09 12:25:14;;;;;;;29.30;15.53;;;6.90;99.90;;;;;;5068006;28;20231;-64
2023/02/09 12:28:42;;;;;;;25.57;15.07;;;7.00;99.90;;;;;;5070314;28;20227;-64
2023/02/09 12:32:24;;;;;;;25.07;15.47;;;7.10;99.90;;;;;;5065064;28;20275;-66
2023/02/09 12:35:39;;;;;;;27.47;16.10;;;7.10;99.90;;;;;;5071520;28;20199;-66
2023/02/09 12:39:00;;;;;;;30.93;16.27;;;7.40;99.90;;;;;;5065084;28;20672;-64
2023/02/09 12:42:41;;;;;;;27.23;16.63;;;7.50;99.90;;;;;;5070160;28;20271;-66
2023/02/09 12:46:12;;;;;;;26.13;16.20;;;7.40;99.90;;;;;;5074083;28;20260;-64
2023/02/09 12:49:30;;;;;;;27.87;16.97;;;7.30;99.90;;;;;;5069369;28;20221;-64
2023/02/09 12:52:36;;;;;;;27.83;16.10;;;7.20;99.90;;;;;;5070423;28;20223;-64
2023/02/09 12:55:58;;;;;;;33.10;16.50;;;7.20;99.90;;;;;;5063676;28;20231;-66
2023/02/09 12:59:14;;;;;;;28.37;17.53;;;7.20;99.90;;;;;;5069800;28;20559;-66
2023/02/09 13:02:26;;;;;;;27.47;15.97;;;7.20;99.90;;;;;;5072077;28;20670;-66
2023/02/09 13:05:37;;;;;;;31.37;17.73;;;7.20;99.90;;;;;;5072714;28;20207;-66
2023/02/09 13:08:48;;;;;;;29.57;17.67;;;7.20;99.90;;;;;;5074496;28;20601;-66
2023/02/09 13:12:04;;;;;;;29.40;16.63;;;7.30;99.90;;;;;;5074422;28;20218;-66
2023/02/09 13:15:13;;;;;;;35.43;17.93;;;7.30;99.90;;;;;;5069534;28;20207;-66
2023/02/09 13:18:24;;;;;;;30.57;17.87;;;7.30;99.90;;;;;;5073673;28;20589;-66
2023/02/09 13:21:39;;;;;;;32.50;17.47;;;7.50;99.90;;;;;;5072550;28;20268;-66
2023/02/09 13:24:56;;;;;;;28.30;17.00;;;7.60;99.90;;;;;;5071703;28;20222;-66
2023/02/09 13:28:10;;;;;;;36.33;18.03;;;7.60;99.90;;;;;;5073662;28;20226;-66
2023/02/09 13:31:25;;;;;;;33.73;18.17;;;7.70;99.90;;;;;;5072098;28;20263;-66
2023/02/09 13:34:37;;;;;;;33.73;18.57;;;7.70;99.90;;;;;;5073552;28;20215;-66
2023/02/09 13:37:48;;;;;;;34.40;17.97;;;7.70;99.90;;;;;;5071223;28;20311;-66
2023/02/09 13:40:55;;;;;;;39.37;19.40;;;7.60;99.90;;;;;;5062297;28;20724;-66
2023/02/09 13:44:01;;;;;;;32.03;18.90;;;7.70;99.90;;;;;;5071805;28;20218;-66
2023/02/09 13:47:07;;;;;;;33.97;19.57;;;7.70;99.90;;;;;;5072053;28;20203;-66
2023/02/09 13:50:15;;;;;;;33.83;19.27;;;7.60;99.90;;;;;;5072316;28;20214;-66
2023/02/09 13:53:24;;;;;;;35.33;18.83;;;7.50;99.90;;;;;;5071107;28;20222;-66
2023/02/09 13:56:33;;;;;;;35.67;19.23;;;7.40;99.90;;;;;;5068675;28;20235;-64
2023/02/09 13:59:41;;;;;;;34.80;18.50;;;7.30;99.90;;;;;;5072982;28;20231;-66
2023/02/09 14:02:51;;;;;;;34.33;19.83;;;7.40;99.90;;;;;;5072499;28;20196;-66
2023/02/09 14:06:02;;;;;;;31.90;18.53;;;7.40;99.90;;;;;;5068369;28;20203;-66
2023/02/09 14:09:16;;;;;;;42.33;22.40;;;7.40;99.90;;;;;;5074335;28;20254;-64
2023/02/09 14:12:49;;;;;;;38.97;22.53;;;7.50;99.90;;;;;;5072450;28;20216;-64
2023/02/09 14:16:06;;;;;;;34.83;20.20;;;7.30;99.90;;;;;;5071146;28;20213;-66
2023/02/09 14:19:27;;;;;;;36.70;20.07;;;7.20;99.90;;;;;;5071231;28;21592;-66
2023/02/09 14:22:35;;;;;;;36.40;19.73;;;7.20;99.90;;;;;;5073565;28;20360;-66
2023/02/09 14:25:43;;;;;;;33.60;18.97;;;7.20;99.90;;;;;;5068380;28;20238;-66
2023/02/09 14:28:53;;;;;;;36.30;19.83;;;7.30;99.90;;;;;;5077522;28;20272;-66
2023/02/09 14:32:01;;;;;;;35.07;19.63;;;7.30;99.90;;;;;;5071195;28;20688;-66
2023/02/09 14:35:18;;;;;;;32.47;20.03;;;7.40;99.90;;;;;;5075595;28;20195;-66
2023/02/09 14:38:36;;;;;;;41.23;21.17;;;7.50;99.90;;;;;;5071377;28;20219;-64
2023/02/09 14:41:55;;;;;;;36.40;20.00;;;7.60;99.90;;;;;;5066545;28;20223;-64
2023/02/09 14:45:20;;;;;;;34.33;19.80;;;7.70;99.90;;;;;;5069678;28;20219;-66
2023/02/09 14:48:27;;;;;;;37.47;18.77;;;7.60;99.90;;;;;;5068614;28;20199;-66
2023/02/09 14:51:33;;;;;;;35.30;18.97;;;7.60;99.90;;;;;;5073038;28;20192;-66
2023/02/09 14:54:46;;;;;;;31.57;19.13;;;7.50;99.90;;;;;;5071079;28;20227;-67
2023/02/09 14:57:53;;;;;;;36.20;20.33;;;7.50;99.90;;;;;;5072448;28;20718;-66
2023/02/09 15:01:01;;;;;;;35.47;19.57;;;7.50;99.90;;;;;;5072424;28;20603;-66
2023/02/09 15:04:07;;;;;;;40.53;21.13;;;7.40;99.90;;;;;;5072575;28;20215;-66
2023/02/09 15:07:19;;;;;;;35.93;19.53;;;7.30;99.90;;;;;;5076569;28;20215;-66
2023/02/09 15:10:27;;;;;;;40.20;21.73;;;7.40;99.90;;;;;;5064107;28;20219;-66
2023/02/09 15:13:36;;;;;;;40.43;21.77;;;7.30;99.90;;;;;;5071726;28;20846;-66
2023/02/09 15:16:42;;;;;;;42.13;20.33;;;7.20;99.90;;;;;;5070995;28;20187;-66
2023/02/09 15:19:48;;;;;;;36.27;20.77;;;7.30;99.90;;;;;;5072436;28;20223;-66
2023/02/09 15:22:55;;;;;;;38.97;21.10;;;7.20;99.90;;;;;;5069945;28;20625;-66
2023/02/09 15:26:01;;;;;;;38.07;21.73;;;7.20;99.90;;;;;;5071114;28;20733;-66
2023/02/09 15:29:11;;;;;;;43.00;22.30;;;7.10;99.90;;;;;;5071348;28;20238;-66
2023/02/09 15:32:19;;;;;;;45.67;22.73;;;7.10;99.90;;;;;;5071856;28;20310;-66
2023/02/09 15:35:27;;;;;;;43.23;22.93;;;7.00;99.90;;;;;;5069397;28;20195;-66
2023/02/09 15:38:33;;;;;;;41.03;23.13;;;7.00;99.90;;;;;;5070232;28;20288;-66
2023/02/09 15:48:40;;;;;;;42.93;22.90;;;6.70;99.90;;;;;;5068163;28;20218;-66
2023/02/09 15:51:46;;;;;;;45.20;23.97;;;6.60;99.90;;;;;;5071078;28;20207;-66
2023/02/09 15:54:53;;;;;;;49.37;23.23;;;6.50;99.90;;;;;;5066797;28;20222;-66
2023/02/09 15:57:59;;;;;;;45.73;23.30;;;6.50;99.90;;;;;;5069397;28;20610;-66
2023/02/09 16:01:06;;;;;;;39.77;22.07;;;6.50;99.90;;;;;;5069210;28;22141;-64
2023/02/09 16:04:12;;;;;;;41.20;22.60;;;6.40;99.90;;;;;;5069842;28;20239;-66
2023/02/09 16:07:24;;;;;;;42.17;22.47;;;6.30;99.90;;;;;;5069508;28;20692;-66
2023/02/09 16:10:30;;;;;;;38.70;22.07;;;6.30;99.90;;;;;;5065342;28;20298;-66
2023/02/09 16:13:36;;;;;;;49.83;24.87;;;6.30;99.90;;;;;;5066914;28;20223;-66
2023/02/09 16:16:44;;;;;;;42.60;22.87;;;6.30;99.90;;;;;;5070114;28;20225;-66
2023/02/09 16:19:50;;;;;;;44.63;22.53;;;6.30;99.90;;;;;;5072200;28;20244;-66
2023/02/09 16:23:00;;;;;;;43.33;23.00;;;6.20;99.90;;;;;;5070109;28;20227;-66
2023/02/09 16:26:20;;;;;;;41.10;22.00;;;6.20;99.90;;;;;;5061353;28;20223;-66
2023/02/09 16:29:25;;;;;;;41.53;22.87;;;6.10;99.90;;;;;;5067319;28;20272;-66